Time;durP1;ratioP1;P1;durP2;ratioP2;P2;SDS_P1;SDS_P2;PMS_P1;PMS_P2;Temp;Humidity;BMP_temperature;BMP_pressure;BME280_temperature;BME280_humidity;BME280_pressure;Samples;Min_cycle;Max_cycle;Signal;HPM_P1;HPM_P2
2021/09/07 00:00:27;;;;;;;2.17;1.70;;;14.70;98.00;;;;;;5112201;28;20488;-71
2021/09/07 00:02:54;;;;;;;2.60;1.97;;;14.80;98.00;;;;;;5112086;28;20521;-72
2021/09/07 00:05:24;;;;;;;3.20;1.90;;;15.00;98.00;;;;;;5112217;28;20846;-72
2021/09/07 00:07:51;;;;;;;3.63;2.00;;;14.80;98.00;;;;;;5111032;28;20462;-71
2021/09/07 00:10:18;;;;;;;3.20;1.87;;;14.70;98.00;;;;;;5112060;28;20463;-71
2021/09/07 00:12:46;;;;;;;2.60;1.87;;;14.80;98.00;;;;;;5112289;28;20490;-71
2021/09/07 00:15:16;;;;;;;3.27;2.07;;;14.70;98.00;;;;;;5112188;28;20524;-72
2021/09/07 00:17:43;;;;;;;1.97;1.83;;;14.70;98.00;;;;;;5112169;28;20990;-72
2021/09/07 00:20:11;;;;;;;1.50;1.40;;;14.60;98.00;;;;;;5112100;28;20463;-71
2021/09/07 00:22:39;;;;;;;2.40;1.83;;;14.50;98.00;;;;;;5112304;28;20504;-70
2021/09/07 00:25:07;;;;;;;1.97;1.57;;;14.60;98.00;;;;;;5112046;28;20512;-71
2021/09/07 00:27:37;;;;;;;1.57;1.40;;;14.50;98.00;;;;;;5112083;28;20522;-72
2021/09/07 00:30:06;;;;;;;4.43;2.10;;;14.50;98.00;;;;;;5111805;28;20494;-72
2021/09/07 00:32:33;;;;;;;2.30;1.77;;;14.50;98.00;;;;;;5112106;28;20972;-71
2021/09/07 00:35:00;;;;;;;1.90;1.60;;;14.40;98.00;;;;;;5111988;28;20497;-72
2021/09/07 00:37:27;;;;;;;4.17;2.90;;;14.30;98.00;;;;;;5111973;28;20530;-71
2021/09/07 00:39:54;;;;;;;3.30;1.80;;;14.30;98.00;;;;;;5112017;28;20450;-71
2021/09/07 00:42:21;;;;;;;2.70;1.83;;;14.30;98.00;;;;;;5112002;28;20941;-70
2021/09/07 00:44:48;;;;;;;3.23;1.53;;;14.30;98.00;;;;;;5111959;28;20984;-71
2021/09/07 00:47:17;;;;;;;2.47;2.27;;;14.30;98.00;;;;;;5111864;28;20455;-72
2021/09/07 00:49:44;;;;;;;2.90;1.80;;;14.40;98.00;;;;;;5115447;28;20501;-70
2021/09/07 00:52:11;;;;;;;2.07;1.67;;;14.40;98.00;;;;;;5114462;28;20489;-70
2021/09/07 00:54:39;;;;;;;6.70;2.27;;;14.50;98.00;;;;;;5116123;28;20459;-72
2021/09/07 00:57:08;;;;;;;2.80;1.77;;;14.50;98.00;;;;;;5115473;28;20952;-72
2021/09/07 00:59:37;;;;;;;1.43;1.33;;;14.30;98.00;;;;;;5115848;28;20804;-71
2021/09/07 01:02:06;;;;;;;2.47;1.90;;;14.20;98.00;;;;;;5114217;28;20446;-72
2021/09/07 01:04:35;;;;;;;1.67;1.50;;;14.20;98.00;;;;;;5115325;28;20514;-70
2021/09/07 01:07:04;;;;;;;1.90;1.60;;;14.20;98.00;;;;;;5115381;28;20595;-72
2021/09/07 01:09:31;;;;;;;1.70;1.33;;;14.10;98.00;;;;;;5115494;28;20493;-71
2021/09/07 01:11:59;;;;;;;1.97;1.70;;;14.10;98.00;;;;;;5115543;28;20493;-71
2021/09/07 01:14:31;;;;;;;1.60;1.50;;;14.00;98.00;;;;;;5114143;28;20484;-71
2021/09/07 01:16:59;;;;;;;2.60;1.70;;;13.90;98.00;;;;;;5115267;28;20529;-72
2021/09/07 01:19:27;;;;;;;1.43;1.33;;;14.00;98.00;;;;;;5115399;28;21000;-72
2021/09/07 01:21:56;;;;;;;3.43;1.50;;;14.00;98.00;;;;;;5115132;28;20490;-71
2021/09/07 01:24:24;;;;;;;3.10;1.60;;;14.10;98.00;;;;;;5115073;28;20483;-71
2021/09/07 01:26:52;;;;;;;3.20;1.53;;;14.00;98.00;;;;;;5115140;28;20921;-71
2021/09/07 01:29:19;;;;;;;2.03;1.73;;;13.80;98.00;;;;;;5115072;28;20494;-71
2021/09/07 01:31:46;;;;;;;2.00;1.50;;;13.70;98.00;;;;;;5114935;28;20455;-71
2021/09/07 01:34:21;;;;;;;1.30;1.30;;;13.70;98.00;;;;;;5115053;28;20925;-72
2021/09/07 01:36:47;;;;;;;2.13;1.70;;;13.70;98.00;;;;;;5115027;28;20955;-70
2021/09/07 01:39:15;;;;;;;3.73;1.70;;;13.70;98.00;;;;;;5115006;28;20451;-72
2021/09/07 01:41:43;;;;;;;2.17;1.57;;;13.60;98.00;;;;;;5114913;28;20485;-71
2021/09/07 01:44:11;;;;;;;1.70;1.50;;;13.60;98.00;;;;;;5114857;28;20581;-71
2021/09/07 01:46:38;;;;;;;1.67;1.63;;;13.60;98.00;;;;;;5114708;28;20512;-71
2021/09/07 01:49:08;;;;;;;2.10;1.60;;;13.60;98.00;;;;;;5113807;28;20491;-72
2021/09/07 01:51:36;;;;;;;1.93;1.40;;;13.50;98.00;;;;;;5114822;28;20450;-71
2021/09/07 01:54:04;;;;;;;1.87;1.43;;;13.50;98.00;;;;;;5115101;28;20477;-70
2021/09/07 01:56:31;;;;;;;2.50;1.50;;;13.50;98.00;;;;;;5114475;28;20546;-71
2021/09/07 01:59:01;;;;;;;3.37;1.97;;;13.40;98.00;;;;;;5114637;28;20945;-71
2021/09/07 02:01:29;;;;;;;1.73;1.40;;;13.50;98.00;;;;;;5114502;28;20568;-72
2021/09/07 02:03:56;;;;;;;2.57;1.70;;;13.60;98.00;;;;;;5114410;28;20482;-71
2021/09/07 02:06:23;;;;;;;2.83;1.70;;;13.60;98.00;;;;;;5114515;28;20491;-71
2021/09/07 02:08:51;;;;;;;3.10;1.90;;;13.60;98.00;;;;;;5114731;28;20551;-72
2021/09/07 02:11:18;;;;;;;1.63;1.37;;;13.50;98.00;;;;;;5114322;28;20451;-70
2021/09/07 02:13:45;;;;;;;2.50;1.73;;;13.50;98.00;;;;;;5114421;28;20541;-71
2021/09/07 02:16:13;;;;;;;1.20;1.10;;;13.40;98.00;;;;;;5114394;28;20478;-72
2021/09/07 02:18:40;;;;;;;1.53;1.37;;;13.40;98.00;;;;;;5113150;28;20451;-72
2021/09/07 02:21:07;;;;;;;1.70;1.30;;;13.50;98.00;;;;;;5114146;28;20523;-71
2021/09/07 02:23:34;;;;;;;2.90;2.10;;;13.40;98.00;;;;;;5114139;28;20522;-71
2021/09/07 02:26:01;;;;;;;1.30;1.27;;;13.50;98.00;;;;;;5113780;28;20465;-71
2021/09/07 02:28:28;;;;;;;1.80;1.50;;;13.50;98.00;;;;;;5113631;28;20827;-71
2021/09/07 02:30:56;;;;;;;5.03;2.07;;;13.40;98.00;;;;;;5113848;28;20608;-70
2021/09/07 02:33:24;;;;;;;1.50;1.50;;;13.40;98.00;;;;;;5114009;28;20486;-73
2021/09/07 02:35:52;;;;;;;2.00;1.50;;;13.50;98.00;;;;;;5113701;28;20878;-72
2021/09/07 02:38:19;;;;;;;2.97;1.70;;;13.60;98.00;;;;;;5113915;28;20505;-72
2021/09/07 02:40:46;;;;;;;2.33;1.73;;;13.40;98.00;;;;;;5113033;28;20459;-71
2021/09/07 02:43:13;;;;;;;2.23;1.63;;;13.30;98.00;;;;;;5113538;28;20960;-72
2021/09/07 02:45:40;;;;;;;2.17;1.67;;;13.20;98.00;;;;;;5113449;28;20521;-71
2021/09/07 02:48:07;;;;;;;4.80;2.60;;;13.40;98.00;;;;;;5113833;28;20495;-72
2021/09/07 02:50:35;;;;;;;4.03;2.10;;;13.40;98.00;;;;;;5113049;28;20487;-71
2021/09/07 02:53:03;;;;;;;1.80;1.37;;;13.30;98.00;;;;;;5113480;28;20454;-72
2021/09/07 02:55:30;;;;;;;3.07;1.73;;;13.20;98.00;;;;;;5113388;28;20947;-71
2021/09/07 02:57:57;;;;;;;2.53;1.63;;;13.20;98.00;;;;;;5113406;28;20488;-72
2021/09/07 03:00:24;;;;;;;2.43;1.50;;;13.20;98.00;;;;;;5113168;28;20498;-71
2021/09/07 03:02:53;;;;;;;2.90;2.23;;;13.10;98.00;;;;;;5113440;28;20496;-71
2021/09/07 03:05:19;;;;;;;2.33;1.87;;;13.10;98.00;;;;;;5113074;28;20485;-72
2021/09/07 03:07:48;;;;;;;2.20;1.40;;;13.10;98.00;;;;;;5113234;28;20497;-71
2021/09/07 03:10:15;;;;;;;1.77;1.50;;;13.00;98.00;;;;;;5113177;28;20598;-70
2021/09/07 03:12:42;;;;;;;1.40;1.40;;;13.10;98.00;;;;;;5112716;28;20486;-71
2021/09/07 03:15:10;;;;;;;1.70;1.60;;;13.20;98.00;;;;;;5113240;28;20842;-71
2021/09/07 03:17:37;;;;;;;1.80;1.40;;;13.10;98.00;;;;;;5112906;28;20458;-72
2021/09/07 03:20:05;;;;;;;1.60;1.40;;;13.00;98.00;;;;;;5113006;28;20471;-72
2021/09/07 03:22:33;;;;;;;1.50;1.50;;;13.00;98.00;;;;;;5113036;28;20488;-71
2021/09/07 03:25:01;;;;;;;3.57;1.77;;;12.90;98.00;;;;;;5112855;28;20495;-71
2021/09/07 03:27:28;;;;;;;1.40;1.30;;;12.80;98.00;;;;;;5112813;28;20491;-71
2021/09/07 03:29:55;;;;;;;2.07;1.37;;;12.80;98.00;;;;;;5113139;28;20822;-71
2021/09/07 03:32:22;;;;;;;2.73;1.77;;;12.90;98.00;;;;;;5112734;28;20510;-72
2021/09/07 03:34:49;;;;;;;2.40;2.20;;;12.80;98.00;;;;;;5112773;28;20453;-72
2021/09/07 03:37:16;;;;;;;3.10;1.63;;;12.80;98.00;;;;;;5112787;28;20485;-72
2021/09/07 03:39:43;;;;;;;3.77;1.93;;;12.80;98.00;;;;;;5112666;28;20493;-72
2021/09/07 03:42:11;;;;;;;2.17;1.50;;;12.70;98.00;;;;;;5112934;28;21093;-71
2021/09/07 03:44:39;;;;;;;3.40;1.60;;;12.70;98.00;;;;;;5112608;28;20481;-72
2021/09/07 03:47:06;;;;;;;2.43;1.40;;;12.70;98.00;;;;;;5111119;28;20484;-71
2021/09/07 03:49:33;;;;;;;2.07;1.67;;;12.70;98.00;;;;;;5112517;28;20486;-72
2021/09/07 03:52:00;;;;;;;2.10;1.60;;;12.80;98.00;;;;;;5111238;28;20940;-71
2021/09/07 03:54:27;;;;;;;2.23;1.43;;;12.80;98.00;;;;;;5112040;28;20484;-72
2021/09/07 03:56:54;;;;;;;1.60;1.40;;;12.70;98.00;;;;;;5111981;28;20478;-72
2021/09/07 03:59:23;;;;;;;2.67;1.67;;;12.80;98.00;;;;;;5112407;28;20497;-71
2021/09/07 04:01:51;;;;;;;1.60;1.30;;;12.80;98.00;;;;;;5112359;28;20871;-71
2021/09/07 04:04:21;;;;;;;1.60;1.17;;;12.90;98.00;;;;;;5112081;28;20554;-71
2021/09/07 04:06:47;;;;;;;1.40;1.40;;;12.80;98.00;;;;;;5112111;28;20516;-71
2021/09/07 04:09:14;;;;;;;4.13;1.97;;;12.70;98.00;;;;;;5112226;28;20488;-71
2021/09/07 04:11:41;;;;;;;2.17;1.47;;;12.60;98.00;;;;;;5111924;28;20950;-72
2021/09/07 04:14:08;;;;;;;2.17;1.50;;;12.60;98.00;;;;;;5112182;28;20798;-72
2021/09/07 04:16:37;;;;;;;2.47;1.60;;;12.60;98.00;;;;;;5112014;28;20500;-72
2021/09/07 04:19:04;;;;;;;2.23;1.43;;;12.60;98.00;;;;;;5112133;28;20465;-71
2021/09/07 04:21:31;;;;;;;2.20;1.50;;;12.50;98.00;;;;;;5112000;28;20878;-70
2021/09/07 04:23:58;;;;;;;4.00;1.50;;;12.50;98.00;;;;;;5114180;28;20497;-72
2021/09/07 04:26:25;;;;;;;2.43;1.33;;;12.50;98.00;;;;;;5116105;28;20488;-72
2021/09/07 04:28:52;;;;;;;2.13;1.57;;;12.50;98.00;;;;;;5116225;28;20461;-71
2021/09/07 04:31:19;;;;;;;2.23;1.70;;;12.60;98.00;;;;;;5116347;28;20493;-70
2021/09/07 04:33:56;;;;;;;2.90;2.23;;;12.70;98.00;;;;;;5116307;28;20464;-72
2021/09/07 04:36:23;;;;;;;1.50;1.43;;;12.70;98.00;;;;;;5116370;28;20459;-71
2021/09/07 04:38:50;;;;;;;2.27;1.57;;;12.90;98.00;;;;;;5116247;28;20516;-71
2021/09/07 04:41:17;;;;;;;2.00;1.33;;;12.90;98.00;;;;;;5116127;28;20452;-71
2021/09/07 04:43:44;;;;;;;2.33;1.60;;;12.90;98.00;;;;;;5116342;28;20484;-70
2021/09/07 04:46:11;;;;;;;1.60;1.10;;;12.80;98.00;;;;;;5116175;28;20947;-71
2021/09/07 04:48:38;;;;;;;1.40;1.27;;;12.60;98.00;;;;;;5115042;28;20489;-71
2021/09/07 04:51:06;;;;;;;2.07;1.90;;;12.60;98.00;;;;;;5116326;28;20514;-71
2021/09/07 04:53:33;;;;;;;1.20;1.10;;;12.50;98.00;;;;;;5115909;28;20497;-71
2021/09/07 04:56:01;;;;;;;2.00;1.50;;;12.40;98.00;;;;;;5115857;28;20485;-71
2021/09/07 04:58:28;;;;;;;2.90;1.93;;;12.50;98.00;;;;;;5115601;28;20447;-71
2021/09/07 05:00:55;;;;;;;4.73;2.03;;;12.60;98.00;;;;;;5115573;28;20822;-71
2021/09/07 05:03:22;;;;;;;2.00;1.43;;;12.60;98.00;;;;;;5115884;28;20520;-73
2021/09/07 05:06:11;;;;;;;1.47;1.23;;;12.60;98.00;;;;;;5115403;28;20483;-71
2021/09/07 05:08:38;;;;;;;1.23;1.13;;;12.70;98.00;;;;;;5115545;28;20502;-71
2021/09/07 05:11:14;;;;;;;2.27;1.10;;;12.70;98.00;;;;;;5115363;28;20489;-71
2021/09/07 05:13:41;;;;;;;1.57;1.57;;;12.80;98.00;;;;;;5115483;28;20453;-70
2021/09/07 05:16:08;;;;;;;1.83;1.30;;;12.70;98.00;;;;;;5115327;28;20847;-71
2021/09/07 05:18:35;;;;;;;1.43;1.40;;;12.80;98.00;;;;;;5115295;28;20496;-71
2021/09/07 05:21:02;;;;;;;1.33;1.20;;;12.80;98.00;;;;;;5115234;28;20454;-72
2021/09/07 05:23:30;;;;;;;2.57;1.33;;;12.80;98.00;;;;;;5115115;28;20492;-72
2021/09/07 05:25:57;;;;;;;2.20;1.70;;;12.90;98.00;;;;;;5114920;28;20482;-72
2021/09/07 05:28:24;;;;;;;4.17;1.80;;;12.90;98.00;;;;;;5115169;28;20457;-70
2021/09/07 05:30:52;;;;;;;1.93;1.60;;;13.00;98.00;;;;;;5115028;28;20461;-72
2021/09/07 05:33:19;;;;;;;1.97;1.27;;;13.00;98.00;;;;;;5115146;28;20452;-72
2021/09/07 05:35:46;;;;;;;1.93;1.40;;;13.10;98.00;;;;;;5113108;28;20447;-71
2021/09/07 05:38:15;;;;;;;1.70;1.50;;;13.20;98.00;;;;;;5113753;28;20453;-71
2021/09/07 05:40:43;;;;;;;5.63;1.83;;;13.40;98.00;;;;;;5114870;28;20462;-71
2021/09/07 05:43:11;;;;;;;2.67;1.80;;;13.40;98.00;;;;;;5114924;28;20516;-72
2021/09/07 05:45:38;;;;;;;1.87;1.33;;;13.40;98.00;;;;;;5114684;28;20581;-71
2021/09/07 05:48:05;;;;;;;1.30;1.10;;;13.40;98.00;;;;;;5114673;28;20447;-71
2021/09/07 05:50:32;;;;;;;2.50;1.37;;;13.50;98.00;;;;;;5114827;28;20494;-72
2021/09/07 05:52:59;;;;;;;1.63;1.50;;;13.60;98.00;;;;;;5114872;28;20454;-71
2021/09/07 05:55:26;;;;;;;3.00;2.17;;;13.70;98.00;;;;;;5114901;28;21011;-71
2021/09/07 05:57:55;;;;;;;2.60;1.53;;;13.70;98.00;;;;;;5114682;28;20457;-73
2021/09/07 06:00:23;;;;;;;2.33;1.70;;;13.60;98.00;;;;;;5113875;28;20538;-72
2021/09/07 06:02:52;;;;;;;2.53;1.97;;;13.70;98.00;;;;;;5112710;28;21004;-74
2021/09/07 06:05:19;;;;;;;2.47;1.77;;;13.70;98.00;;;;;;5113720;28;20480;-72
2021/09/07 06:07:46;;;;;;;1.90;1.50;;;13.70;98.00;;;;;;5113596;28;20452;-75
2021/09/07 06:10:13;;;;;;;1.80;1.70;;;13.80;98.00;;;;;;5114573;28;20497;-73
2021/09/07 06:12:40;;;;;;;2.27;1.93;;;13.80;98.00;;;;;;5114586;28;20748;-71
2021/09/07 06:15:10;;;;;;;4.10;2.50;;;13.90;98.00;;;;;;5114611;28;20485;-73
2021/09/07 06:17:37;;;;;;;1.57;1.47;;;14.00;98.00;;;;;;5112982;28;20509;-72
2021/09/07 06:20:05;;;;;;;3.60;2.00;;;14.10;98.00;;;;;;5112846;28;20497;-72
2021/09/07 06:22:32;;;;;;;2.63;1.87;;;14.20;98.00;;;;;;5114203;28;20444;-72
2021/09/07 06:24:59;;;;;;;2.57;1.67;;;14.20;98.00;;;;;;5113676;28;21048;-73
2021/09/07 06:27:26;;;;;;;2.67;1.77;;;14.30;98.00;;;;;;5113546;28;20502;-72
2021/09/07 06:29:53;;;;;;;3.40;1.93;;;14.30;98.00;;;;;;5113176;28;20476;-74
2021/09/07 06:32:22;;;;;;;3.57;1.73;;;14.40;98.00;;;;;;5113667;28;21129;-74
2021/09/07 06:34:49;;;;;;;1.93;1.40;;;14.40;98.00;;;;;;5113885;28;20519;-74
2021/09/07 06:37:16;;;;;;;2.90;1.63;;;14.40;98.00;;;;;;5113565;28;20870;-73
2021/09/07 06:39:43;;;;;;;2.70;1.83;;;14.40;98.00;;;;;;5113576;28;20480;-73
2021/09/07 06:42:12;;;;;;;1.93;1.67;;;14.30;98.00;;;;;;5113568;28;20490;-72
2021/09/07 06:44:39;;;;;;;1.77;1.77;;;14.30;98.00;;;;;;5113428;28;20518;-73
2021/09/07 06:47:06;;;;;;;2.20;1.60;;;14.40;98.00;;;;;;5112725;28;20872;-72
2021/09/07 06:49:35;;;;;;;2.33;1.60;;;14.40;98.00;;;;;;5113570;28;20489;-73
2021/09/07 06:52:02;;;;;;;2.27;1.60;;;14.30;98.00;;;;;;5113380;28;20488;-71
2021/09/07 06:54:29;;;;;;;2.50;1.93;;;14.40;98.00;;;;;;5112210;28;20532;-72
2021/09/07 06:56:56;;;;;;;2.87;1.63;;;14.40;98.00;;;;;;5113315;28;20529;-73
2021/09/07 06:59:23;;;;;;;3.87;2.20;;;14.50;98.00;;;;;;5113613;28;20489;-72
2021/09/07 07:01:50;;;;;;;2.33;1.90;;;14.70;98.00;;;;;;5113403;28;20457;-72
2021/09/07 07:04:17;;;;;;;3.90;2.10;;;14.90;98.00;;;;;;5112326;28;20968;-73
2021/09/07 07:06:45;;;;;;;3.20;2.20;;;14.90;98.00;;;;;;5113124;28;20562;-73
2021/09/07 07:09:13;;;;;;;2.33;1.93;;;15.00;98.00;;;;;;5113265;28;20457;-74
2021/09/07 07:11:40;;;;;;;4.57;2.77;;;15.10;98.00;;;;;;5111556;28;20454;-75
2021/09/07 07:14:06;;;;;;;1.83;1.80;;;15.20;98.00;;;;;;5113228;28;20954;-73
2021/09/07 07:16:33;;;;;;;2.80;2.17;;;15.30;98.00;;;;;;5113489;28;21261;-73
2021/09/07 07:19:00;;;;;;;2.87;1.90;;;15.30;98.00;;;;;;5107940;28;20516;-72
2021/09/07 07:21:29;;;;;;;4.53;1.97;;;15.30;98.00;;;;;;5100741;28;20869;-72
2021/09/07 07:23:59;;;;;;;1.43;1.37;;;15.40;98.00;;;;;;5102454;28;20998;-72
2021/09/07 07:26:26;;;;;;;2.07;1.80;;;15.40;98.00;;;;;;5100547;28;20545;-71
2021/09/07 07:28:56;;;;;;;2.70;1.73;;;15.60;98.00;;;;;;5104391;28;20498;-71
2021/09/07 07:31:23;;;;;;;3.77;2.07;;;15.80;98.00;;;;;;5089120;28;20485;-73
2021/09/07 07:33:51;;;;;;;2.27;2.07;;;15.90;98.00;;;;;;5108266;28;20439;-72
2021/09/07 07:36:18;;;;;;;2.10;1.97;;;16.00;98.00;;;;;;5107354;28;20548;-72
2021/09/07 07:38:47;;;;;;;2.43;2.00;;;16.30;98.00;;;;;;5094407;28;20482;-73
2021/09/07 07:41:15;;;;;;;2.63;1.97;;;16.40;98.00;;;;;;5099764;28;20466;-73
2021/09/07 07:43:46;;;;;;;2.83;2.17;;;16.50;98.00;;;;;;5099562;28;20509;-72
2021/09/07 07:46:13;;;;;;;4.03;2.17;;;16.60;98.00;;;;;;5098751;28;20844;-74
2021/09/07 07:48:41;;;;;;;3.13;2.20;;;16.70;98.00;;;;;;5099092;28;20815;-72
2021/09/07 07:51:08;;;;;;;2.33;2.10;;;16.70;98.00;;;;;;5094061;28;20547;-73
2021/09/07 07:53:35;;;;;;;4.30;2.30;;;16.80;98.00;;;;;;5106987;28;20455;-74
2021/09/07 07:56:03;;;;;;;4.93;2.70;;;16.80;98.00;;;;;;5099631;28;20463;-74
2021/09/07 07:58:32;;;;;;;2.80;2.30;;;17.00;98.00;;;;;;5108309;28;21013;-71
2021/09/07 08:00:59;;;;;;;2.80;1.53;;;17.00;98.00;;;;;;5106773;28;20455;-73
2021/09/07 08:03:26;;;;;;;1.73;1.53;;;17.00;98.00;;;;;;5105595;28;20453;-71
2021/09/07 08:05:55;;;;;;;2.03;1.80;;;17.10;98.00;;;;;;5102831;28;20488;-70
2021/09/07 08:08:22;;;;;;;2.13;1.97;;;17.10;98.00;;;;;;5068020;28;20447;-68
2021/09/07 08:10:49;;;;;;;2.07;1.83;;;17.30;98.00;;;;;;5090658;28;20495;-72
2021/09/07 08:13:20;;;;;;;2.07;1.77;;;17.40;98.00;;;;;;5090975;28;20455;-72
2021/09/07 08:15:48;;;;;;;2.17;1.90;;;17.70;98.00;;;;;;5090808;28;20459;-70
2021/09/07 08:18:15;;;;;;;2.20;2.03;;;17.80;98.00;;;;;;5094462;28;20548;-70
2021/09/07 08:20:43;;;;;;;2.70;1.50;;;17.90;98.00;;;;;;5093580;28;21026;-72
2021/09/07 08:23:10;;;;;;;2.50;1.80;;;18.10;98.00;;;;;;5090203;28;20447;-71
2021/09/07 08:25:37;;;;;;;2.37;1.57;;;18.20;98.00;;;;;;5096633;28;20474;-71
2021/09/07 08:28:04;;;;;;;1.73;1.37;;;18.30;98.00;;;;;;5107301;28;20455;-71
2021/09/07 08:30:31;;;;;;;2.90;2.20;;;18.50;98.00;;;;;;5098296;28;20463;-71
2021/09/07 08:33:00;;;;;;;3.30;2.00;;;18.60;98.00;;;;;;5102517;28;20501;-70
2021/09/07 08:35:27;;;;;;;1.87;1.57;;;18.70;98.00;;;;;;5103559;28;20467;-72
2021/09/07 08:37:54;;;;;;;3.20;1.73;;;18.80;98.00;;;;;;5106951;28;20462;-71
2021/09/07 08:40:21;;;;;;;1.80;1.43;;;18.90;98.00;;;;;;5103472;28;20475;-73
2021/09/07 08:42:48;;;;;;;2.43;1.87;;;19.00;98.00;;;;;;5091970;28;20499;-71
2021/09/07 08:45:18;;;;;;;2.70;1.83;;;19.00;98.00;;;;;;5108112;28;20455;-71
2021/09/07 08:47:46;;;;;;;2.33;1.67;;;19.10;98.00;;;;;;5098100;28;20816;-71
2021/09/07 08:50:15;;;;;;;1.60;1.33;;;19.30;98.00;;;;;;5097925;28;20538;-72
2021/09/07 08:52:43;;;;;;;3.00;2.10;;;19.50;98.00;;;;;;5097970;28;20452;-73
2021/09/07 08:55:10;;;;;;;3.27;2.07;;;19.50;98.00;;;;;;5093185;28;20483;-70
2021/09/07 08:57:37;;;;;;;2.00;1.67;;;19.50;98.00;;;;;;5103631;28;20883;-70
2021/09/07 09:00:07;;;;;;;2.10;1.63;;;19.50;98.00;;;;;;5098536;28;21030;-72
2021/09/07 09:02:41;;;;;;;2.93;1.70;;;19.60;98.00;;;;;;5101441;28;20923;-72
2021/09/07 09:05:09;;;;;;;2.43;2.03;;;19.70;98.00;;;;;;5106347;28;20451;-71
2021/09/07 09:07:38;;;;;;;2.50;2.00;;;19.80;98.00;;;;;;5097115;28;20540;-71
2021/09/07 09:10:06;;;;;;;3.03;2.10;;;20.00;98.00;;;;;;5100371;28;20459;-72
2021/09/07 09:12:36;;;;;;;3.47;2.20;;;20.20;98.00;;;;;;5097843;28;20972;-72
2021/09/07 09:15:10;;;;;;;2.87;1.80;;;20.60;98.00;;;;;;5079096;28;20956;-72
2021/09/07 09:17:38;;;;;;;3.93;2.00;;;20.80;98.00;;;;;;5094856;28;20518;-72
2021/09/07 09:20:07;;;;;;;3.63;2.50;;;21.00;98.00;;;;;;5109131;28;20905;-70
2021/09/07 09:22:44;;;;;;;2.83;2.07;;;21.10;98.00;;;;;;5104574;27;20458;-71
2021/09/07 09:25:43;;;;;;;3.63;2.23;;;21.30;98.00;;;;;;5075416;28;20461;-70
2021/09/07 09:28:15;;;;;;;3.43;2.07;;;21.40;98.00;;;;;;5083548;28;20451;-73
2021/09/07 09:30:44;;;;;;;3.00;2.00;;;21.70;98.00;;;;;;5084711;28;20471;-72
2021/09/07 09:33:12;;;;;;;3.40;2.07;;;21.80;98.00;;;;;;5093843;28;20521;-70
2021/09/07 09:35:52;;;;;;;3.97;2.90;;;21.90;98.00;;;;;;5100682;28;20541;-71
2021/09/07 09:38:21;;;;;;;2.10;1.97;;;22.10;98.00;;;;;;5104325;28;20463;-72
2021/09/07 09:40:55;;;;;;;2.07;1.73;;;22.30;98.00;;;;;;5109606;28;20464;-70
2021/09/07 09:43:25;;;;;;;2.70;2.07;;;22.40;98.00;;;;;;5101389;28;20903;-71
2021/09/07 09:45:53;;;;;;;2.77;2.13;;;22.70;97.70;;;;;;5104341;28;20452;-72
2021/09/07 09:48:28;;;;;;;4.67;2.63;;;22.80;96.90;;;;;;5089155;28;20463;-73
2021/09/07 09:50:57;;;;;;;4.27;2.67;;;23.00;96.50;;;;;;5093697;28;20789;-71
2021/09/07 09:53:28;;;;;;;3.77;2.23;;;23.00;95.70;;;;;;5093774;28;20455;-71
2021/09/07 09:55:56;;;;;;;4.23;2.90;;;23.10;95.60;;;;;;5092982;28;20514;-70
2021/09/07 09:58:26;;;;;;;4.47;3.23;;;23.20;95.00;;;;;;5094005;28;20503;-71
2021/09/07 10:00:53;;;;;;;3.33;2.27;;;23.30;94.60;;;;;;5093447;28;20535;-70
2021/09/07 10:03:22;;;;;;;4.43;2.73;;;23.50;94.60;;;;;;5091073;28;20452;-71
2021/09/07 10:05:50;;;;;;;3.80;2.73;;;23.70;92.90;;;;;;5091294;28;20961;-72
2021/09/07 10:08:18;;;;;;;5.20;2.43;;;23.80;92.60;;;;;;5097477;28;20479;-72
2021/09/07 10:10:54;;;;;;;4.63;2.50;;;24.00;92.30;;;;;;5099906;28;20481;-70
2021/09/07 10:13:25;;;;;;;3.00;2.40;;;24.10;90.20;;;;;;5100821;28;20482;-70
2021/09/07 10:15:56;;;;;;;5.40;3.20;;;24.40;93.40;;;;;;5108624;28;20538;-70
2021/09/07 10:18:34;;;;;;;5.30;2.70;;;24.50;92.00;;;;;;5102009;28;20510;-72
2021/09/07 10:21:08;;;;;;;4.67;2.83;;;24.70;90.40;;;;;;5099355;28;20869;-71
2021/09/07 10:23:55;;;;;;;4.07;2.63;;;25.00;93.10;;;;;;5091265;28;20456;-70
2021/09/07 10:26:56;;;;;;;4.80;3.00;;;25.20;91.40;;;;;;5108163;28;20490;-71
2021/09/07 10:29:44;;;;;;;3.47;2.50;;;25.40;89.20;;;;;;5100099;28;20531;-72
2021/09/07 10:32:26;;;;;;;6.17;2.70;;;25.50;87.60;;;;;;5100299;28;20454;-71
2021/09/07 10:35:15;;;;;;;4.83;2.80;;;25.60;87.60;;;;;;5092525;28;20510;-73
2021/09/07 10:38:08;;;;;;;5.30;2.70;;;25.70;87.40;;;;;;5100393;28;20512;-70
2021/09/07 10:40:44;;;;;;;3.90;2.67;;;25.80;86.40;;;;;;5099284;28;21103;-71
2021/09/07 10:43:12;;;;;;;4.80;2.77;;;25.90;86.70;;;;;;5108855;28;20458;-70
2021/09/07 10:45:40;;;;;;;4.67;2.43;;;25.80;84.80;;;;;;5108326;28;20455;-72
2021/09/07 10:48:33;;;;;;;2.73;2.30;;;25.80;86.30;;;;;;5108989;28;20544;-72
2021/09/07 10:51:02;;;;;;;3.60;2.50;;;26.00;84.90;;;;;;5085522;28;20572;-71
2021/09/07 10:53:30;;;;;;;4.37;2.63;;;26.10;85.20;;;;;;5101305;28;20481;-73
2021/09/07 10:56:27;;;;;;;3.80;2.63;;;26.30;84.90;;;;;;5108320;28;20485;-72
2021/09/07 10:58:56;;;;;;;2.70;2.27;;;26.50;84.80;;;;;;5103322;28;20862;-72
2021/09/07 11:01:30;;;;;;;2.60;2.10;;;26.70;84.50;;;;;;5099786;28;20542;-72
2021/09/07 11:04:32;;;;;;;3.40;2.80;;;26.90;83.90;;;;;;5097028;28;21033;-72
2021/09/07 11:07:20;;;;;;;6.33;3.17;;;27.10;82.70;;;;;;5091608;28;20918;-71
2021/09/07 11:09:52;;;;;;;3.20;1.97;;;27.30;81.60;;;;;;5089153;28;20447;-71
2021/09/07 11:12:29;;;;;;;4.30;2.40;;;27.50;81.70;;;;;;5095858;28;21007;-72
2021/09/07 11:15:14;;;;;;;6.40;2.90;;;27.60;80.00;;;;;;5090691;28;20513;-73
2021/09/07 11:17:50;;;;;;;3.80;2.53;;;27.60;80.00;;;;;;5085342;28;20466;-72
2021/09/07 11:20:18;;;;;;;4.97;3.00;;;27.60;80.80;;;;;;5105773;28;20949;-71
2021/09/07 11:22:46;;;;;;;5.17;3.17;;;27.70;80.70;;;;;;5090816;28;20487;-70
2021/09/07 11:25:14;;;;;;;4.63;2.87;;;27.90;81.30;;;;;;5091062;28;20460;-71
2021/09/07 11:27:58;;;;;;;4.37;2.80;;;27.90;81.40;;;;;;5070857;28;20488;-69
2021/09/07 11:30:30;;;;;;;3.10;2.30;;;28.10;80.70;;;;;;5089075;28;20489;-72
2021/09/07 11:32:58;;;;;;;4.53;2.87;;;28.20;81.00;;;;;;5082569;28;20479;-70
2021/09/07 11:35:26;;;;;;;4.43;2.60;;;28.20;79.70;;;;;;5090537;28;20517;-69
2021/09/07 11:37:59;;;;;;;4.20;2.40;;;28.10;80.40;;;;;;5090174;28;20456;-71
2021/09/07 11:40:26;;;;;;;4.23;2.83;;;28.30;80.50;;;;;;5089837;28;20814;-70
2021/09/07 11:42:54;;;;;;;3.60;2.37;;;28.30;78.70;;;;;;5092668;28;20452;-71
2021/09/07 11:45:24;;;;;;;3.33;2.43;;;28.50;79.30;;;;;;5087640;28;21004;-70
2021/09/07 11:47:53;;;;;;;4.40;3.07;;;28.20;80.70;;;;;;5097905;28;20491;-73
2021/09/07 11:50:23;;;;;;;5.30;2.87;;;28.20;77.30;;;;;;5103952;28;20452;-70
2021/09/07 11:52:51;;;;;;;3.10;1.90;;;28.10;79.30;;;;;;5104676;28;20540;-71
2021/09/07 11:55:41;;;;;;;5.80;3.17;;;28.10;79.10;;;;;;5089997;28;20544;-71
2021/09/07 11:58:10;;;;;;;5.20;2.90;;;28.20;78.80;;;;;;5090800;28;20452;-71
2021/09/07 12:00:37;;;;;;;3.43;2.50;;;28.30;78.10;;;;;;5089892;28;20502;-70
2021/09/07 12:03:13;;;;;;;5.87;2.90;;;28.00;78.00;;;;;;5089933;28;20565;-72
2021/09/07 12:05:54;;;;;;;4.97;2.77;;;28.00;79.80;;;;;;5090843;28;20512;-71
2021/09/07 12:08:22;;;;;;;4.67;2.33;;;28.20;79.00;;;;;;5097718;28;20578;-70
2021/09/07 12:10:55;;;;;;;3.97;2.40;;;28.30;77.90;;;;;;5098188;28;20448;-71
2021/09/07 12:13:23;;;;;;;3.53;2.37;;;28.20;76.70;;;;;;5097684;28;20888;-71
2021/09/07 12:15:51;;;;;;;5.33;2.90;;;28.30;76.30;;;;;;5090666;28;20455;-70
2021/09/07 12:18:35;;;;;;;3.07;2.23;;;28.40;76.20;;;;;;5087801;28;20487;-71
2021/09/07 12:21:23;;;;;;;4.10;2.83;;;28.40;76.10;;;;;;5089607;28;20467;-70
2021/09/07 12:23:51;;;;;;;4.53;2.50;;;28.40;76.10;;;;;;5096050;28;20449;-70
2021/09/07 12:26:36;;;;;;;5.23;2.80;;;28.30;77.30;;;;;;5097574;28;20456;-71
2021/09/07 12:29:21;;;;;;;3.70;2.53;;;28.20;78.90;;;;;;5094554;28;20527;-70
2021/09/07 12:31:48;;;;;;;4.40;2.70;;;28.20;76.30;;;;;;5098533;28;21051;-70
2021/09/07 12:34:22;;;;;;;5.73;2.93;;;28.20;75.40;;;;;;5087443;28;20484;-71
2021/09/07 12:36:51;;;;;;;4.13;2.73;;;28.20;74.50;;;;;;5089611;28;20456;-70
2021/09/07 12:39:19;;;;;;;4.60;2.80;;;28.10;74.30;;;;;;5085591;28;20444;-73
2021/09/07 12:41:47;;;;;;;3.43;2.57;;;28.10;75.00;;;;;;5089698;28;20487;-72
2021/09/07 12:44:16;;;;;;;6.30;2.90;;;28.20;74.40;;;;;;5093957;28;20479;-70
2021/09/07 12:46:44;;;;;;;5.60;2.90;;;28.50;75.00;;;;;;5092184;28;20544;-71
2021/09/07 12:49:17;;;;;;;3.97;2.50;;;28.60;73.60;;;;;;5091702;28;20974;-71
2021/09/07 12:51:46;;;;;;;4.90;2.90;;;28.70;73.10;;;;;;5092474;28;20452;-69
2021/09/07 12:54:16;;;;;;;4.13;2.40;;;28.80;74.00;;;;;;5093170;28;20474;-72
2021/09/07 12:56:44;;;;;;;3.77;2.60;;;28.90;74.70;;;;;;5102260;28;20452;-72
2021/09/07 12:59:11;;;;;;;4.47;3.10;;;29.10;72.50;;;;;;5111153;28;20474;-74